Time;durP1;ratioP1;P1;durP2;ratioP2;P2;SDS_P1;SDS_P2;PMS_P1;PMS_P2;Temp;Humidity;BMP_temperature;BMP_pressure;BME280_temperature;BME280_humidity;BME280_pressure;Samples;Min_cycle;Max_cycle;Signal;HPM_P1;HPM_P2
2023/08/07 00:03:35;;;;;;;0.73;0.00;;;;;;;13.36;85.12;96671.00;10296243;28;20043;-73
2023/08/07 00:08:56;;;;;;;0.32;0.00;;;;;;;13.32;85.61;96660.38;10297178;28;20049;-73
2023/08/07 00:14:17;;;;;;;0.88;0.00;;;;;;;13.25;86.00;96663.56;10296314;28;20555;-73
2023/08/07 00:19:38;;;;;;;0.10;0.00;;;;;;;13.20;86.42;96667.56;10295789;28;20448;-73
2023/08/07 00:25:00;;;;;;;0.00;0.00;;;;;;;13.19;86.69;96664.03;10295495;28;20043;-73
2023/08/07 00:30:20;;;;;;;0.00;0.00;;;;;;;13.20;86.80;96668.28;10281998;28;20053;-73
2023/08/07 00:35:41;;;;;;;0.32;0.00;;;;;;;13.16;87.18;96654.81;10298844;28;20050;-74
2023/08/07 00:41:03;;;;;;;1.02;0.08;;;;;;;13.16;87.10;96654.81;10300698;28;20551;-73
2023/08/07 00:46:24;;;;;;;0.00;0.00;;;;;;;13.19;87.06;96652.81;10294704;28;20050;-73
2023/08/07 00:51:45;;;;;;;0.00;0.00;;;;;;;13.18;86.90;96652.09;10294503;28;20050;-73
2023/08/07 00:57:15;;;;;;;1.65;0.00;;;;;;;13.22;87.38;96664.84;10307218;28;20053;-73
2023/08/07 01:02:36;;;;;;;0.00;0.00;;;;;;;13.24;87.33;96659.31;10281477;28;20046;-74
2023/08/07 01:07:57;;;;;;;0.55;0.00;;;;;;;13.25;86.83;96661.50;10293819;28;20441;-73
2023/08/07 01:13:42;;;;;;;0.38;0.00;;;;;;;13.27;87.14;96669.25;10293989;28;20045;-73
2023/08/07 01:19:04;;;;;;;0.63;0.00;;;;;;;13.33;86.94;96661.81;10293863;28;20050;-73
2023/08/07 01:24:25;;;;;;;0.00;0.00;;;;;;;13.36;86.43;96660.53;10279787;28;20053;-73
2023/08/07 01:29:49;;;;;;;0.00;0.00;;;;;;;13.36;86.39;96673.81;10293227;28;20548;-73
2023/08/07 01:35:12;;;;;;;0.00;0.00;;;;;;;13.36;86.35;96682.94;10292917;28;20043;-73
2023/08/07 01:40:32;;;;;;;0.00;0.00;;;;;;;13.36;86.79;96685.75;10278373;28;20038;-73
2023/08/07 01:45:53;;;;;;;0.00;0.00;;;;;;;13.32;86.33;96690.47;10278412;28;20042;-73
2023/08/07 01:51:14;;;;;;;0.00;0.00;;;;;;;13.25;86.82;96695.13;10292883;28;20050;-73
2023/08/07 01:56:35;;;;;;;0.22;0.00;;;;;;;13.22;87.42;96692.84;10292764;28;20077;-73
2023/08/07 02:01:56;;;;;;;0.75;0.00;;;;;;;13.20;87.42;96687.88;10292747;28;20063;-73
2023/08/07 02:07:17;;;;;;;0.00;0.00;;;;;;;13.19;87.62;96689.25;10303940;28;20053;-73
2023/08/07 02:12:38;;;;;;;0.20;0.00;;;;;;;13.17;87.69;96697.56;10300922;28;20043;-73
2023/08/07 02:17:59;;;;;;;1.27;0.00;;;;;;;13.16;87.91;96694.03;10300704;28;20054;-73
2023/08/07 02:23:20;;;;;;;1.02;0.00;;;;;;;13.15;88.14;96697.47;10286941;28;20043;-73
2023/08/07 02:28:40;;;;;;;0.00;0.00;;;;;;;13.11;88.42;96691.69;10299854;28;20066;-73
2023/08/07 02:34:01;;;;;;;0.13;0.00;;;;;;;13.12;88.50;96702.28;10299810;28;20122;-74
2023/08/07 02:39:24;;;;;;;0.00;0.00;;;;;;;13.09;88.52;96705.63;10299613;28;20131;-73
2023/08/07 02:44:45;;;;;;;0.85;0.00;;;;;;;13.09;88.80;96717.56;10299395;28;20374;-73
2023/08/07 02:50:06;;;;;;;0.00;0.00;;;;;;;13.08;88.92;96712.59;10299182;28;20046;-73
2023/08/07 02:55:27;;;;;;;1.17;0.00;;;;;;;13.09;88.87;96709.16;10298882;28;20046;-73
2023/08/07 03:00:48;;;;;;;0.10;0.00;;;;;;;13.05;89.42;96719.47;10298583;28;20109;-73
2023/08/07 03:06:08;;;;;;;0.00;0.00;;;;;;;13.03;89.48;96716.59;10298505;28;20047;-73
2023/08/07 03:11:29;;;;;;;0.00;0.00;;;;;;;13.06;89.44;96720.91;10298810;28;20047;-73
2023/08/07 03:16:50;;;;;;;0.00;0.00;;;;;;;13.01;89.80;96710.88;10297702;28;20055;-73
2023/08/07 03:22:11;;;;;;;1.27;0.00;;;;;;;12.97;89.99;96721.94;10284789;28;20043;-73
2023/08/07 03:27:32;;;;;;;1.05;0.00;;;;;;;13.01;90.14;96716.50;10297871;28;20437;-73
2023/08/07 03:32:53;;;;;;;0.30;0.00;;;;;;;12.96;89.89;96720.50;10290107;28;20043;-73
2023/08/07 03:38:14;;;;;;;0.80;0.00;;;;;;;12.89;90.08;96734.25;10242874;28;20043;-72
2023/08/07 03:43:35;;;;;;;0.10;0.00;;;;;;;12.88;90.12;96735.59;10243093;29;20050;-73
2023/08/07 03:48:56;;;;;;;0.63;0.00;;;;;;;12.87;90.16;96731.34;10259666;29;20099;-68
2023/08/07 03:54:18;;;;;;;0.03;0.00;;;;;;;12.81;90.57;96728.28;10256723;29;20474;-71
2023/08/07 03:59:39;;;;;;;0.25;0.00;;;;;;;12.88;90.40;96732.78;10256978;28;20078;-69
2023/08/07 04:04:59;;;;;;;0.20;0.00;;;;;;;12.90;90.50;96738.47;10294107;28;20134;-70
2023/08/07 04:10:22;;;;;;;0.20;0.00;;;;;;;12.88;91.00;96746.81;10296018;28;20042;-70
2023/08/07 04:15:43;;;;;;;0.30;0.00;;;;;;;12.84;90.95;96751.53;10282040;28;20058;-70
2023/08/07 04:21:03;;;;;;;0.52;0.00;;;;;;;12.89;90.53;96764.31;10252878;28;20438;-70
2023/08/07 04:26:25;;;;;;;0.00;0.00;;;;;;;12.87;90.64;96753.75;10255744;28;20035;-71
2023/08/07 04:31:46;;;;;;;0.20;0.00;;;;;;;12.89;90.84;96756.63;10269092;28;20078;-74
2023/08/07 04:37:06;;;;;;;0.28;0.00;;;;;;;12.91;90.94;96761.59;10255622;28;20070;-69
2023/08/07 04:42:27;;;;;;;0.05;0.00;;;;;;;13.03;90.75;96764.22;10268124;28;20046;-69
2023/08/07 04:47:48;;;;;;;1.27;0.00;;;;;;;13.06;90.89;96766.47;10254641;29;20118;-70
2023/08/07 04:53:09;;;;;;;0.03;0.00;;;;;;;13.08;90.49;96777.03;10269282;28;20445;-69
2023/08/07 04:58:30;;;;;;;0.15;0.00;;;;;;;13.10;90.88;96777.09;10294245;28;20053;-70
2023/08/07 05:03:50;;;;;;;1.35;0.00;;;;;;;13.16;90.74;96777.38;10294118;28;20074;-71
2023/08/07 05:09:11;;;;;;;0.60;0.00;;;;;;;13.25;90.65;96784.06;10293771;28;20507;-69
2023/08/07 05:14:32;;;;;;;0.82;0.00;;;;;;;13.37;90.53;96799.31;10293928;28;20046;-69
2023/08/07 05:19:53;;;;;;;2.17;0.00;;;;;;;13.52;90.12;96799.91;10293381;28;20408;-69
2023/08/07 05:25:18;;;;;;;0.00;0.00;;;;;;;13.67;89.80;96807.50;10294124;28;20074;-69
2023/08/07 05:30:39;;;;;;;0.05;0.00;;;;;;;13.70;89.32;96812.56;10280180;28;20039;-70
2023/08/07 05:36:00;;;;;;;0.00;0.00;;;;;;;13.80;89.24;96817.88;10294136;28;20057;-69
2023/08/07 05:41:21;;;;;;;0.13;0.00;;;;;;;13.78;88.50;96831.06;10293773;28;20481;-69
2023/08/07 05:46:41;;;;;;;0.00;0.00;;;;;;;13.83;88.98;96839.03;10292506;28;20043;-69
2023/08/07 05:52:03;;;;;;;0.00;0.00;;;;;;;13.93;88.79;96836.63;10294219;28;20066;-69
2023/08/07 05:57:23;;;;;;;0.43;0.10;;;;;;;14.01;88.69;96847.44;10305742;28;20074;-72
2023/08/07 06:02:44;;;;;;;0.38;0.00;;;;;;;14.28;88.29;96843.56;10293060;28;20091;-69
2023/08/07 06:08:05;;;;;;;1.20;0.00;;;;;;;14.53;87.92;96851.59;10291838;28;20130;-69
2023/08/07 06:13:25;;;;;;;1.25;0.00;;;;;;;14.76;86.69;96858.03;10278715;28;20047;-69
2023/08/07 06:18:56;;;;;;;0.35;0.10;;;;;;;14.93;86.52;96865.69;10292118;28;20074;-69
2023/08/07 06:24:16;;;;;;;0.10;0.00;;;;;;;15.05;85.86;96873.84;10278272;28;20454;-69
2023/08/07 06:29:37;;;;;;;0.08;0.00;;;;;;;15.21;84.88;96882.16;10291820;28;20070;-70
2023/08/07 06:34:58;;;;;;;0.20;0.00;;;;;;;15.39;83.01;96889.13;10275425;28;20333;-69
2023/08/07 06:40:19;;;;;;;0.10;0.00;;;;;;;15.51;83.24;96891.66;10292195;28;20089;-69
2023/08/07 06:45:40;;;;;;;0.10;0.00;;;;;;;16.03;82.78;96903.28;10291278;28;20062;-69
2023/08/07 06:51:00;;;;;;;1.85;0.10;;;;;;;16.24;81.46;96902.56;10291369;28;20488;-70
2023/08/07 06:56:22;;;;;;;0.88;0.10;;;;;;;16.10;79.96;96910.53;10298935;28;20504;-70
2023/08/07 07:01:43;;;;;;;0.22;0.10;;;;;;;15.57;79.94;96914.38;10298458;28;20060;-74
2023/08/07 07:07:04;;;;;;;2.00;0.20;;;;;;;15.21;80.21;96916.59;10298527;28;20493;-71
2023/08/07 07:12:25;;;;;;;1.45;0.20;;;;;;;15.04;80.56;96929.34;10298440;28;20118;-71
2023/08/07 07:17:46;;;;;;;0.47;0.20;;;;;;;15.17;80.61;96939.69;10298300;28;20054;-71
2023/08/07 07:23:07;;;;;;;0.68;0.20;;;;;;;15.52;80.59;96943.72;10283711;28;20071;-71
2023/08/07 07:28:27;;;;;;;0.77;0.20;;;;;;;16.74;79.09;96961.16;10311199;28;20126;-71
2023/08/07 07:33:48;;;;;;;1.85;0.30;;;;;;;17.30;77.12;96962.16;10298403;28;20126;-71
2023/08/07 07:39:10;;;;;;;1.55;0.20;;;;;;;18.64;75.78;96969.91;10296840;28;20130;-71
2023/08/07 07:44:31;;;;;;;1.60;0.22;;;;;;;18.80;73.17;96964.63;10296960;28;20494;-67
2023/08/07 07:50:04;;;;;;;1.40;0.30;;;;;;;18.46;71.81;96964.53;10296409;28;20070;-67
2023/08/07 07:55:26;;;;;;;2.10;0.20;;;;;;;18.37;71.99;96991.13;10296512;28;20077;-68
2023/08/07 08:00:47;;;;;;;0.73;0.20;;;;;;;20.29;72.85;96994.56;10297202;28;20174;-67
2023/08/07 08:06:08;;;;;;;0.40;0.20;;;;;;;23.55;63.27;97006.84;10295666;28;20070;-67
2023/08/07 08:11:30;;;;;;;1.13;0.10;;;;;;;23.13;59.27;97010.16;10309324;28;20481;-69
2023/08/07 08:16:51;;;;;;;2.30;0.20;;;;;;;21.47;59.52;97014.84;10295425;28;20541;-68
2023/08/07 08:22:11;;;;;;;0.50;0.10;;;;;;;20.73;59.80;97013.75;10296148;28;20055;-68
2023/08/07 08:27:32;;;;;;;2.35;0.15;;;;;;;20.59;60.81;97024.88;10295814;28;20145;-68
2023/08/07 08:32:53;;;;;;;1.33;0.10;;;;;;;20.54;59.36;97032.56;10295973;28;20170;-66
2023/08/07 08:38:14;;;;;;;0.50;0.10;;;;;;;21.65;58.86;97044.22;10295248;28;20131;-68
2023/08/07 08:43:36;;;;;;;1.02;0.10;;;;;;;22.40;55.42;97046.50;10295477;28;20050;-67
2023/08/07 08:48:57;;;;;;;0.10;0.00;;;;;;;21.66;55.13;97061.97;10294356;28;20062;-69
2023/08/07 08:54:18;;;;;;;0.10;0.05;;;;;;;22.01;56.80;97060.28;10293932;28;20066;-69
2023/08/07 08:59:40;;;;;;;0.88;0.10;;;;;;;23.01;52.80;97064.13;10280504;28;20062;-69
2023/08/07 09:05:01;;;;;;;2.78;0.20;;;;;;;22.77;51.24;97073.84;10293699;28;20043;-68
2023/08/07 09:10:21;;;;;;;1.27;0.17;;;;;;;22.17;51.17;97079.66;10294493;28;20051;-67
2023/08/07 09:15:47;;;;;;;0.70;0.10;;;;;;;21.30;51.20;97088.41;10279398;28;20554;-69
2023/08/07 09:21:09;;;;;;;0.25;0.20;;;;;;;20.84;51.62;97102.53;10307153;28;20489;-68
2023/08/07 09:26:31;;;;;;;1.27;0.20;;;;;;;20.52;52.65;97097.75;10293234;28;20046;-69
2023/08/07 09:31:54;;;;;;;1.20;0.10;;;;;;;20.74;52.72;97102.38;10279660;28;20046;-66
2023/08/07 09:37:14;;;;;;;0.55;0.10;;;;;;;23.56;51.81;97102.25;10292767;28;20098;-70
2023/08/07 09:42:37;;;;;;;1.52;0.03;;;;;;;24.49;46.95;97112.69;10292572;28;20533;-70
2023/08/07 09:48:06;;;;;;;0.65;0.10;;;;;;;26.10;44.80;97118.38;10292329;28;20477;-72
2023/08/07 09:53:27;;;;;;;0.30;0.10;;;;;;;26.04;41.33;97124.84;10292051;28;20039;-74
2023/08/07 09:58:48;;;;;;;0.43;0.17;;;;;;;25.15;41.09;97142.78;10292229;28;20098;-73
2023/08/07 10:04:14;;;;;;;0.20;0.10;;;;;;;23.35;43.34;97146.22;10292207;28;20074;-73
2023/08/07 10:09:35;;;;;;;0.10;0.03;;;;;;;21.39;47.69;97169.47;10278681;28;20066;-74
2023/08/07 10:14:56;;;;;;;0.17;0.00;;;;;;;20.32;51.82;97156.13;10278667;28;20125;-74
2023/08/07 10:20:16;;;;;;;0.17;0.00;;;;;;;23.45;51.03;97168.38;10278191;28;20070;-74
2023/08/07 10:25:40;;;;;;;1.50;0.10;;;;;;;27.81;41.53;97154.53;10291661;28;20097;-74
2023/08/07 10:31:00;;;;;;;1.35;0.10;;;;;;;29.42;39.01;97153.16;10286294;28;20043;-74
2023/08/07 10:36:21;;;;;;;0.22;0.10;;;;;;;28.90;37.48;97161.16;10286377;28;20073;-74
2023/08/07 10:41:45;;;;;;;0.80;0.00;;;;;;;26.00;38.78;97161.31;10299348;28;20203;-74
2023/08/07 10:47:06;;;;;;;0.30;0.10;;;;;;;24.48;41.59;97162.59;10285649;28;20071;-74
2023/08/07 10:52:27;;;;;;;0.35;0.00;;;;;;;24.73;43.16;97166.97;10285547;28;20454;-74
2023/08/07 10:57:48;;;;;;;0.30;0.10;;;;;;;26.60;41.02;97162.53;10271659;28;20527;-74
2023/08/07 11:03:09;;;;;;;0.25;0.00;;;;;;;26.90;39.01;97158.78;10285107;28;20374;-74
2023/08/07 11:08:31;;;;;;;0.10;0.00;;;;;;;25.12;39.88;97152.78;10298559;28;20063;-73
2023/08/07 11:13:52;;;;;;;2.83;0.10;;;;;;;24.87;41.34;97148.44;10298129;28;20115;-74
2023/08/07 11:19:19;;;;;;;2.45;0.10;;;;;;;23.97;41.12;97150.97;10284596;28;20047;-74
2023/08/07 11:24:39;;;;;;;0.45;0.10;;;;;;;23.72;42.33;97155.06;10284728;28;20078;-74
2023/08/07 11:30:00;;;;;;;1.30;0.10;;;;;;;23.19;42.41;97155.38;10298728;28;20469;-73
2023/08/07 11:35:22;;;;;;;0.47;0.10;;;;;;;22.43;44.26;97144.63;10297549;28;20062;-74
2023/08/07 11:40:43;;;;;;;0.17;0.10;;;;;;;23.94;44.22;97152.38;10283425;28;20118;-74
2023/08/07 11:46:04;;;;;;;0.47;0.00;;;;;;;23.92;41.33;97161.59;10283451;28;20039;-74
2023/08/07 11:51:25;;;;;;;0.53;0.10;;;;;;;24.19;40.66;97165.31;10283298;28;20109;-74
2023/08/07 11:56:46;;;;;;;1.05;0.10;;;;;;;23.93;40.63;97145.22;10283122;28;20301;-73
2023/08/07 12:02:11;;;;;;;1.25;0.10;;;;;;;24.31;40.62;97161.09;10282717;28;20493;-74
2023/08/07 12:07:33;;;;;;;0.68;0.10;;;;;;;24.21;39.98;97171.03;10283314;28;20473;-74
2023/08/07 12:13:00;;;;;;;1.55;0.03;;;;;;;24.50;39.93;97176.88;10296261;28;20070;-74
2023/08/07 12:18:22;;;;;;;0.50;0.10;;;;;;;24.58;40.46;97194.03;10295821;28;20119;-74
2023/08/07 12:23:43;;;;;;;0.30;0.10;;;;;;;24.39;39.95;97203.94;10296064;28;20184;-74
2023/08/07 12:29:04;;;;;;;0.27;0.10;;;;;;;24.22;39.75;97203.09;10281870;28;20127;-74
2023/08/07 12:34:25;;;;;;;1.25;0.00;;;;;;;23.15;40.93;97203.72;10294930;28;20484;-74
2023/08/07 12:39:49;;;;;;;1.00;0.00;;;;;;;23.33;42.73;97197.47;10295761;28;20541;-75
2023/08/07 12:45:14;;;;;;;0.30;0.10;;;;;;;23.56;42.12;97206.94;10290574;28;20070;-75
2023/08/07 12:50:35;;;;;;;0.50;0.20;;;;;;;23.61;42.47;97203.44;10280208;28;20118;-75
2023/08/07 12:55:56;;;;;;;0.10;0.03;;;;;;;23.55;41.96;97211.19;10278058;28;20117;-74
2023/08/07 13:01:18;;;;;;;3.28;0.00;;;;;;;23.84;41.03;97212.88;10263030;28;20503;-75
2023/08/07 13:06:39;;;;;;;0.28;0.00;;;;;;;23.38;40.44;97204.66;10276576;28;20593;-75
2023/08/07 13:12:00;;;;;;;1.35;0.10;;;;;;;23.30;40.53;97218.81;10292613;28;20090;-74
2023/08/07 13:17:21;;;;;;;0.55;0.10;;;;;;;23.25;40.91;97220.88;10293226;28;20047;-75
2023/08/07 13:22:43;;;;;;;0.20;0.00;;;;;;;23.32;40.98;97219.53;10280321;28;20117;-75
2023/08/07 13:28:06;;;;;;;1.97;0.10;;;;;;;23.74;40.41;97238.44;10279935;28;20495;-75
2023/08/07 13:33:27;;;;;;;0.30;0.00;;;;;;;23.56;40.43;97226.88;10292965;28;20039;-74
2023/08/07 13:38:47;;;;;;;1.00;0.03;;;;;;;23.51;40.33;97248.91;10279367;28;20126;-75
2023/08/07 13:44:08;;;;;;;0.10;0.00;;;;;;;22.59;40.56;97257.88;10292530;28;20121;-74
2023/08/07 13:49:29;;;;;;;0.05;0.00;;;;;;;22.05;42.25;97250.69;10292269;28;20125;-74
2023/08/07 13:54:50;;;;;;;0.55;0.10;;;;;;;22.31;42.61;97261.75;10279031;28;20066;-75
2023/08/07 14:00:12;;;;;;;0.10;0.00;;;;;;;22.28;42.76;97260.28;10292051;28;20150;-74
2023/08/07 14:05:33;;;;;;;0.40;0.00;;;;;;;22.33;42.74;97278.13;10278824;28;20066;-74
2023/08/07 14:10:53;;;;;;;0.30;0.03;;;;;;;22.03;42.66;97264.88;10265031;28;20486;-74
2023/08/07 14:16:14;;;;;;;0.45;0.00;;;;;;;21.81;43.26;97256.00;10292082;28;20070;-75
2023/08/07 14:21:35;;;;;;;0.32;0.00;;;;;;;21.97;43.08;97296.03;10278265;28;20043;-74
2023/08/07 14:26:55;;;;;;;2.33;0.10;;;;;;;22.05;42.81;97304.69;10278481;28;20532;-75
2023/08/07 14:32:16;;;;;;;0.55;0.05;;;;;;;21.40;43.81;97306.44;10278130;28;20159;-75
2023/08/07 14:37:37;;;;;;;0.00;0.00;;;;;;;21.76;43.82;97314.88;10291860;28;20082;-74
2023/08/07 14:42:58;;;;;;;1.55;0.10;;;;;;;21.24;43.75;97326.72;10291425;28;20497;-75
2023/08/07 14:48:19;;;;;;;0.38;0.00;;;;;;;20.72;44.59;97326.38;10278004;28;20119;-74
2023/08/07 14:53:40;;;;;;;0.73;0.00;;;;;;;20.72;44.97;97323.53;10291295;28;20067;-74
2023/08/07 14:59:01;;;;;;;0.20;0.10;;;;;;;20.95;44.71;97341.75;10277953;28;20134;-74
2023/08/07 15:04:21;;;;;;;0.50;0.00;;;;;;;20.99;44.50;97364.53;10291111;28;20495;-75
2023/08/07 15:09:42;;;;;;;0.30;0.00;;;;;;;20.63;45.86;97355.94;10277179;28;20126;-73
2023/08/07 15:15:03;;;;;;;1.15;0.00;;;;;;;20.32;46.51;97355.25;10281143;28;20413;-73
2023/08/07 15:20:25;;;;;;;0.32;0.00;;;;;;;19.89;47.51;97367.69;10297575;28;20401;-73
2023/08/07 15:25:46;;;;;;;0.43;0.00;;;;;;;19.69;48.02;97359.38;10284231;28;20070;-73
2023/08/07 15:31:10;;;;;;;0.20;0.00;;;;;;;19.59;48.44;97356.28;10284284;28;20117;-73
2023/08/07 15:36:30;;;;;;;0.05;0.00;;;;;;;19.50;48.86;97361.00;10283817;28;20070;-74
2023/08/07 15:41:51;;;;;;;0.25;0.10;;;;;;;19.30;48.43;97352.69;10297245;28;20473;-74
2023/08/07 15:47:12;;;;;;;0.30;0.00;;;;;;;18.96;48.73;97363.03;10270060;28;20125;-73
2023/08/07 15:52:33;;;;;;;0.77;0.10;;;;;;;18.78;49.49;97368.88;10297034;28;20054;-73
2023/08/07 15:57:54;;;;;;;0.25;0.03;;;;;;;18.50;50.25;97385.66;10283241;28;20436;-73
2023/08/07 16:03:14;;;;;;;2.70;0.10;;;;;;;18.23;51.15;97389.78;10296319;28;20504;-76
2023/08/07 16:08:35;;;;;;;1.95;0.10;;;;;;;18.19;51.61;97384.72;10296350;28;20074;-76
2023/08/07 16:13:56;;;;;;;0.20;0.10;;;;;;;17.91;52.03;97376.03;10296021;28;20078;-76
2023/08/07 16:19:17;;;;;;;0.30;0.10;;;;;;;17.83;52.98;97389.16;10296070;28;20054;-74
2023/08/07 16:24:40;;;;;;;0.50;0.10;;;;;;;18.05;52.85;97375.06;10282500;28;20046;-74
2023/08/07 16:30:05;;;;;;;0.28;0.10;;;;;;;17.98;52.99;97377.69;10296408;28;20066;-74
2023/08/07 16:35:28;;;;;;;0.20;0.03;;;;;;;17.81;53.46;97403.22;10282201;28;20062;-75
2023/08/07 16:40:48;;;;;;;0.52;0.10;;;;;;;17.63;53.93;97400.47;10295023;28;20448;-75
2023/08/07 16:46:09;;;;;;;0.75;0.20;;;;;;;17.51;54.57;97416.97;10267841;28;20043;-75
2023/08/07 16:51:32;;;;;;;0.32;0.10;;;;;;;17.35;55.12;97417.13;10294358;28;20401;-75
2023/08/07 16:56:53;;;;;;;3.20;0.27;;;;;;;17.42;55.62;97425.16;10268181;28;20540;-76
2023/08/07 17:02:15;;;;;;;0.45;0.20;;;;;;;17.43;55.23;97418.13;10280787;28;20078;-74
2023/08/07 17:07:36;;;;;;;0.20;0.10;;;;;;;17.31;55.57;97439.56;10294048;28;20466;-75
2023/08/07 17:12:57;;;;;;;1.20;0.20;;;;;;;16.98;56.37;97446.06;10280662;28;20062;-76
2023/08/07 17:18:18;;;;;;;0.45;0.17;;;;;;;16.72;56.96;97452.16;10293817;28;20105;-76
2023/08/07 17:23:39;;;;;;;2.30;0.10;;;;;;;16.53;57.70;97455.63;10294329;28;20075;-74
2023/08/07 17:29:00;;;;;;;0.30;0.10;;;;;;;16.43;58.54;97466.47;10294655;28;20117;-76
2023/08/07 17:34:20;;;;;;;0.30;0.13;;;;;;;16.14;59.33;97462.50;10298821;28;20063;-74
2023/08/07 17:39:43;;;;;;;0.68;0.10;;;;;;;16.00;59.94;97470.34;10287854;28;20058;-75
2023/08/07 17:45:04;;;;;;;0.40;0.10;;;;;;;15.87;60.40;97460.69;10298233;28;20066;-74
2023/08/07 17:50:26;;;;;;;0.40;0.20;;;;;;;15.78;61.25;97475.75;10296898;28;20075;-74
2023/08/07 17:55:47;;;;;;;1.75;0.30;;;;;;;15.73;61.61;97480.50;10295005;28;20047;-74
2023/08/07 18:01:07;;;;;;;1.05;0.45;;;;;;;15.68;61.88;97475.34;10281051;28;20050;-75
2023/08/07 18:06:28;;;;;;;2.13;0.40;;;;;;;15.56;62.27;97483.22;10280026;28;20114;-75
2023/08/07 18:11:49;;;;;;;1.05;0.32;;;;;;;15.46;62.96;97503.91;10267417;28;20118;-75
2023/08/07 18:17:10;;;;;;;0.30;0.10;;;;;;;15.35;63.52;97510.44;10293296;28;20046;-74
2023/08/07 18:22:31;;;;;;;0.38;0.20;;;;;;;15.27;64.92;97526.22;10293528;28;20069;-75
2023/08/07 18:27:51;;;;;;;0.50;0.20;;;;;;;15.10;65.19;97536.00;10279986;28;20047;-74
2023/08/07 18:33:13;;;;;;;1.75;0.57;;;;;;;15.01;66.29;97545.41;10293788;28;20043;-75
2023/08/07 18:38:33;;;;;;;0.45;0.20;;;;;;;14.95;67.57;97543.03;10280616;28;20078;-76
2023/08/07 18:43:54;;;;;;;0.73;0.38;;;;;;;14.91;67.54;97553.34;10279929;28;20054;-77
2023/08/07 18:49:15;;;;;;;1.33;0.20;;;;;;;14.91;67.81;97554.09;10295939;28;20042;-75
2023/08/07 18:54:38;;;;;;;0.85;0.20;;;;;;;14.89;68.06;97554.00;10286868;28;20039;-74
2023/08/07 18:59:58;;;;;;;3.13;0.40;;;;;;;14.79;68.43;97565.47;10286780;28;20082;-75
2023/08/07 19:05:19;;;;;;;0.95;0.30;;;;;;;14.67;68.83;97572.56;10299504;28;20046;-74
2023/08/07 19:10:40;;;;;;;0.70;0.20;;;;;;;14.49;69.42;97580.84;10285587;28;20062;-74
2023/08/07 19:16:01;;;;;;;0.80;0.20;;;;;;;14.34;69.58;97590.59;10272534;28;20066;-75
2023/08/07 19:21:22;;;;;;;1.85;0.30;;;;;;;14.24;70.21;97584.47;10271927;28;20073;-75
2023/08/07 19:26:43;;;;;;;2.22;0.30;;;;;;;14.20;70.24;97598.31;10286345;28;20114;-75
2023/08/07 19:32:04;;;;;;;1.25;0.40;;;;;;;14.19;70.18;97602.47;10286589;28;20086;-75
2023/08/07 19:37:25;;;;;;;1.60;0.60;;;;;;;14.17;70.06;97616.38;10300645;28;20468;-74
2023/08/07 19:42:46;;;;;;;4.30;0.40;;;;;;;14.15;70.05;97621.91;10287165;28;20050;-76
2023/08/07 19:48:07;;;;;;;2.17;0.40;;;;;;;14.12;69.68;97628.78;10306000;28;20042;-75
2023/08/07 19:53:28;;;;;;;4.38;0.50;;;;;;;14.02;69.49;97632.50;10304510;28;20047;-75
2023/08/07 19:58:48;;;;;;;2.45;0.40;;;;;;;13.77;69.41;97626.97;10296901;28;20078;-75
2023/08/07 20:04:11;;;;;;;4.82;0.47;;;;;;;13.55;69.97;97634.19;10283566;28;20066;-74
2023/08/07 20:09:32;;;;;;;3.10;0.57;;;;;;;13.51;70.44;97633.94;10283391;28;20126;-75
2023/08/07 20:14:52;;;;;;;2.30;0.40;;;;;;;13.61;70.23;97638.06;10296364;28;20046;-75
2023/08/07 20:20:13;;;;;;;1.27;0.30;;;;;;;13.72;70.44;97647.75;10296254;28;20067;-75
2023/08/07 20:25:34;;;;;;;2.80;0.60;;;;;;;13.76;70.84;97642.34;10282639;28;20077;-74
2023/08/07 20:30:55;;;;;;;1.30;0.32;;;;;;;13.81;71.37;97646.81;10269144;28;20050;-74
2023/08/07 20:36:17;;;;;;;2.28;0.47;;;;;;;13.72;71.71;97642.84;10282127;28;20469;-75
2023/08/07 20:41:38;;;;;;;1.70;0.60;;;;;;;13.72;72.29;97647.75;10295697;28;20430;-75
2023/08/07 20:47:00;;;;;;;2.28;0.40;;;;;;;13.69;72.60;97654.56;10281942;28;20050;-75
2023/08/07 20:52:20;;;;;;;1.45;0.50;;;;;;;13.66;73.02;97655.81;10281764;28;20054;-74
2023/08/07 20:57:41;;;;;;;1.27;0.35;;;;;;;13.52;73.15;97650.19;10267789;28;20051;-75
2023/08/07 21:03:03;;;;;;;2.65;0.40;;;;;;;13.36;73.85;97660.50;10281506;28;20051;-75
2023/08/07 21:08:24;;;;;;;1.35;0.50;;;;;;;13.15;74.25;97650.94;10295390;28;20051;-75
2023/08/07 21:13:45;;;;;;;1.48;0.50;;;;;;;12.97;74.99;97668.78;10280586;28;20042;-75
2023/08/07 21:19:06;;;;;;;1.00;0.50;;;;;;;12.86;75.20;97662.63;10296198;28;20105;-75
2023/08/07 21:24:26;;;;;;;1.40;0.50;;;;;;;12.75;75.91;97663.38;10294771;28;20046;-75
2023/08/07 21:29:47;;;;;;;3.00;0.70;;;;;;;12.65;77.02;97670.47;10294659;28;20070;-75
2023/08/07 21:35:08;;;;;;;2.58;0.55;;;;;;;12.59;77.18;97674.38;10280957;28;20531;-74
2023/08/07 21:40:29;;;;;;;2.42;0.57;;;;;;;12.49;77.80;97665.38;10296658;28;20073;-75
2023/08/07 21:45:50;;;;;;;2.60;0.60;;;;;;;12.40;78.64;97668.31;10290054;28;20043;-75
2023/08/07 21:51:11;;;;;;;3.50;1.10;;;;;;;12.36;78.76;97666.00;10284697;28;20043;-75
2023/08/07 21:56:32;;;;;;;2.97;0.63;;;;;;;12.31;79.16;97659.44;10297924;28;20038;-74
2023/08/07 22:01:53;;;;;;;3.13;0.90;;;;;;;12.27;79.47;97673.19;10296106;28;20059;-75
2023/08/07 22:07:14;;;;;;;2.55;0.90;;;;;;;12.27;79.69;97675.25;10281912;28;20386;-75
2023/08/07 22:12:35;;;;;;;1.48;0.60;;;;;;;12.28;79.90;97674.66;10295729;28;20038;-75
2023/08/07 22:17:56;;;;;;;4.07;0.50;;;;;;;12.29;80.07;97664.91;10280737;28;20507;-75
2023/08/07 22:23:17;;;;;;;2.38;0.95;;;;;;;12.30;79.94;97669.16;10283726;28;20117;-75
2023/08/07 22:28:38;;;;;;;3.30;1.00;;;;;;;12.31;80.11;97679.00;10274774;28;20069;-75
2023/08/07 22:33:59;;;;;;;3.17;1.20;;;;;;;12.39;79.86;97669.66;10287976;28;20125;-75
2023/08/07 22:39:20;;;;;;;2.08;0.70;;;;;;;12.43;80.00;97675.47;10288039;28;20047;-75
2023/08/07 22:44:41;;;;;;;4.65;0.90;;;;;;;12.45;79.96;97670.75;10301929;28;20043;-75
2023/08/07 22:50:02;;;;;;;2.92;0.68;;;;;;;12.53;79.78;97667.66;10300493;28;20042;-75
2023/08/07 22:55:23;;;;;;;3.33;0.90;;;;;;;12.65;79.47;97664.88;10287561;28;20043;-75
2023/08/07 23:00:44;;;;;;;4.75;1.02;;;;;;;12.62;79.24;97678.00;10301804;28;20087;-75
2023/08/07 23:06:05;;;;;;;4.95;0.90;;;;;;;12.51;79.23;97673.88;10286673;28;20046;-75
2023/08/07 23:11:29;;;;;;;4.15;1.20;;;;;;;12.46;79.46;97693.88;10273223;28;20035;-75
2023/08/07 23:16:50;;;;;;;2.72;0.95;;;;;;;12.49;79.52;97689.84;10300875;28;20043;-75
2023/08/07 23:22:11;;;;;;;6.40;1.17;;;;;;;12.55;79.49;97681.81;10299662;28;20097;-75
2023/08/07 23:27:32;;;;;;;2.28;0.82;;;;;;;12.57;79.77;97691.06;10299345;28;20046;-75
2023/08/07 23:32:53;;;;;;;7.97;1.25;;;;;;;12.54;79.52;97685.94;10285717;28;20043;-75
2023/08/07 23:38:14;;;;;;;2.60;0.75;;;;;;;12.44;79.58;97688.84;10285881;28;20093;-75
2023/08/07 23:43:35;;;;;;;2.65;1.00;;;;;;;12.32;79.68;97688.88;10285353;28;20495;-75
2023/08/07 23:48:56;;;;;;;4.30;0.90;;;;;;;12.35;79.88;97695.31;10285479;28;20054;-74
2023/08/07 23:54:17;;;;;;;2.35;0.90;;;;;;;12.41;79.52;97692.16;10285251;28;20042;-75
2023/08/07 23:59:39;;;;;;;3.13;0.93;;;;;;;12.34;79.34;97691.06;10297486;28;20055;-75
